createdAt,value
2022-08-05T00:00:04.664Z,40.70
2022-08-05T00:06:29.235Z,41.20
2022-08-05T00:12:33.688Z,41.50
2022-08-05T00:18:48.059Z,41.80
2022-08-05T00:25:03.499Z,41.50
2022-08-05T00:31:54.148Z,41.30
2022-08-05T00:37:51.322Z,41.60
2022-08-05T00:43:50.421Z,41.90
2022-08-05T00:50:05.000Z,41.90
2022-08-05T00:56:22.932Z,41.60
2022-08-05T01:02:35.981Z,41.50
2022-08-05T01:08:49.400Z,41.90
2022-08-05T01:15:35.021Z,42.10
2022-08-05T01:21:26.316Z,41.90
2022-08-05T01:28:15.260Z,41.60
2022-08-05T01:34:30.410Z,41.40
2022-08-05T01:40:44.479Z,42.50
2022-08-05T01:46:58.648Z,42.60
2022-08-05T01:53:10.811Z,41.80
2022-08-05T01:59:27.738Z,41.70
2022-08-05T02:05:42.471Z,41.80
2022-08-05T02:11:59.164Z,42.20
2022-08-05T02:18:31.991Z,42.30
2022-08-05T02:24:33.434Z,42.00
2022-08-05T02:30:54.318Z,41.80
2022-08-05T02:37:02.776Z,42.00
2022-08-05T02:43:18.629Z,42.30
2022-08-05T02:49:36.784Z,42.20
2022-08-05T02:55:54.943Z,42.00
2022-08-05T03:02:03.485Z,41.90
2022-08-05T03:08:17.793Z,42.10
2022-08-05T03:14:32.016Z,42.40
2022-08-05T03:20:48.840Z,42.20
2022-08-05T03:27:02.239Z,42.00
2022-08-05T03:33:15.166Z,42.10
2022-08-05T03:39:27.978Z,42.30
2022-08-05T03:45:57.176Z,42.40
2022-08-05T03:52:50.622Z,42.20
2022-08-05T03:58:17.645Z,42.10
2022-08-05T04:04:30.018Z,42.40
2022-08-05T04:10:44.449Z,42.50
2022-08-05T04:16:58.675Z,42.40
2022-08-05T04:23:16.082Z,42.30
2022-08-05T04:29:28.240Z,42.20
2022-08-05T04:36:16.699Z,42.20
2022-08-05T04:41:59.749Z,42.50
2022-08-05T04:48:27.694Z,42.50
2022-08-05T04:54:34.010Z,42.30
2022-08-05T05:00:50.586Z,42.30
2022-08-05T05:07:03.957Z,42.40
2022-08-05T05:13:16.309Z,42.50
2022-08-05T05:19:37.117Z,42.50
2022-08-05T05:25:46.804Z,42.20
2022-08-05T05:32:01.950Z,42.20
2022-08-05T05:38:22.874Z,42.40
2022-08-05T05:44:36.368Z,42.60
2022-08-05T05:50:49.110Z,42.50
2022-08-05T05:57:03.561Z,42.40
2022-08-05T06:03:39.824Z,42.20
2022-08-05T06:09:51.400Z,42.60
2022-08-05T06:16:30.596Z,42.80
2022-08-05T06:22:06.853Z,42.60
2022-08-05T06:28:21.694Z,42.50
2022-08-05T06:34:35.344Z,42.50
2022-08-05T06:40:49.404Z,42.80
2022-08-05T06:47:03.773Z,42.80
2022-08-05T06:53:27.985Z,41.70
2022-08-05T06:59:38.856Z,40.80
2022-08-05T07:05:49.389Z,40.30
2022-08-05T07:12:02.206Z,40.70
2022-08-05T07:18:29.067Z,40.60
2022-08-05T07:24:32.343Z,40.60
2022-08-05T07:30:50.356Z,40.70
2022-08-05T07:37:03.524Z,41.40
2022-08-05T07:43:20.756Z,41.90
2022-08-05T07:49:31.253Z,41.80
2022-08-05T07:56:05.477Z,41.80
2022-08-05T08:02:01.719Z,41.90
2022-08-05T08:08:16.141Z,42.70
2022-08-05T08:14:31.873Z,42.70
2022-08-05T08:21:02.003Z,41.80
2022-08-05T08:27:02.017Z,42.20
2022-08-05T08:33:20.719Z,42.10
2022-08-05T08:39:32.990Z,42.10
2022-08-05T08:45:48.576Z,42.10
2022-08-05T08:52:13.411Z,42.00
2022-08-05T08:58:26.014Z,42.00
2022-08-05T09:04:35.929Z,42.10
2022-08-05T09:10:50.880Z,43.00
2022-08-05T09:17:04.290Z,42.90
2022-08-05T09:23:22.127Z,42.80
2022-08-05T09:29:48.199Z,42.70
2022-08-05T09:36:16.458Z,42.80
2022-08-05T09:42:27.972Z,43.00
2022-08-05T09:48:40.859Z,43.00
2022-08-05T09:55:21.143Z,42.80
2022-08-05T10:01:32.061Z,42.90
2022-08-05T10:08:10.367Z,43.10
2022-08-05T10:14:03.739Z,43.30
2022-08-05T10:20:20.026Z,43.20
2022-08-05T10:26:34.001Z,43.00
2022-08-05T10:32:54.224Z,42.90
2022-08-05T10:39:00.966Z,43.10
2022-08-05T10:45:23.375Z,43.30
2022-08-05T10:51:33.375Z,43.20
2022-08-05T10:57:51.332Z,43.10
2022-08-05T11:04:17.377Z,43.00
2022-08-05T11:10:37.085Z,43.10
2022-08-05T11:16:57.220Z,43.10
2022-08-05T11:23:08.852Z,43.00
2022-08-05T11:29:18.276Z,42.90
2022-08-05T11:36:08.462Z,42.90
2022-08-05T11:42:18.599Z,43.30
2022-08-05T11:48:34.516Z,43.20
2022-08-05T11:54:55.054Z,43.10
2022-08-05T12:01:11.862Z,42.90
2022-08-05T12:08:08.421Z,43.00
2022-08-05T12:13:48.422Z,43.30
2022-08-05T12:20:27.120Z,43.10
2022-08-05T12:26:15.569Z,42.90
2022-08-05T12:32:29.978Z,42.70
2022-08-05T12:38:42.451Z,43.00
2022-08-05T12:44:53.695Z,43.00
2022-08-05T12:52:12.716Z,42.90
2022-08-05T12:58:38.941Z,42.70
2022-08-05T13:03:58.367Z,42.60
2022-08-05T13:10:12.985Z,42.50
2022-08-05T13:16:28.602Z,43.00
2022-08-05T13:22:44.061Z,42.40
2022-08-05T13:28:59.248Z,42.20
2022-08-05T13:35:22.097Z,42.10
2022-08-05T13:41:37.642Z,41.90
2022-08-05T13:48:08.958Z,41.80
2022-08-05T13:54:00.811Z,41.80
2022-08-05T14:00:27.371Z,41.70
2022-08-05T14:06:37.413Z,41.50
2022-08-05T14:12:49.093Z,41.40
2022-08-05T14:19:04.247Z,41.30
2022-08-05T14:25:21.575Z,41.20
2022-08-05T14:32:03.703Z,41.00
2022-08-05T14:37:55.483Z,40.90
2022-08-05T14:44:19.985Z,40.80
2022-08-05T14:50:22.484Z,40.70
2022-08-05T14:56:44.300Z,40.60
2022-08-05T15:02:52.669Z,40.60
2022-08-05T15:09:07.872Z,40.50
2022-08-05T15:15:55.584Z,40.50
2022-08-05T15:21:41.226Z,40.40
2022-08-05T15:27:55.497Z,40.30
2022-08-05T15:34:31.521Z,40.30
2022-08-05T15:41:00.919Z,40.10
2022-08-05T15:46:43.232Z,40.10
2022-08-05T15:53:00.632Z,40.20
2022-08-05T15:59:22.042Z,39.50
2022-08-05T16:05:28.933Z,38.70
2022-08-05T16:11:44.120Z,38.20
2022-08-05T16:17:58.621Z,37.60
2022-08-05T16:24:12.837Z,37.50
2022-08-05T16:30:29.022Z,37.20
2022-08-05T16:36:44.223Z,37.60
2022-08-05T16:42:58.301Z,36.80
2022-08-05T16:49:11.419Z,36.80
2022-08-05T16:55:27.253Z,37.80
2022-08-05T17:01:54.453Z,37.80
2022-08-05T17:07:59.768Z,37.90
2022-08-05T17:14:13.814Z,38.00
2022-08-05T17:20:28.609Z,38.00
2022-08-05T17:26:43.825Z,37.40
2022-08-05T17:32:58.351Z,37.20
2022-08-05T17:39:24.151Z,37.30
2022-08-05T17:45:38.114Z,37.20
2022-08-05T17:51:41.255Z,38.10
2022-08-05T17:57:54.583Z,37.90
2022-08-05T18:04:12.018Z,38.00
2022-08-05T18:10:24.866Z,38.60
2022-08-05T18:16:46.893Z,37.80
2022-08-05T18:22:57.361Z,37.60
2022-08-05T18:29:12.313Z,37.60
2022-08-05T18:35:49.613Z,37.50
2022-08-05T18:41:53.481Z,37.60
2022-08-05T18:47:56.447Z,38.20
2022-08-05T18:54:11.229Z,38.10
2022-08-05T19:00:29.098Z,38.00
2022-08-05T19:06:45.365Z,37.90
2022-08-05T19:13:00.117Z,38.10
2022-08-05T19:19:16.071Z,37.80
2022-08-05T19:25:29.874Z,37.50
2022-08-05T19:31:44.609Z,37.50
2022-08-05T19:38:05.991Z,37.50
2022-08-05T19:44:13.063Z,37.30
2022-08-05T19:50:27.261Z,37.50
2022-08-05T19:56:42.027Z,37.80
2022-08-05T20:02:57.254Z,37.70
2022-08-05T20:09:14.252Z,37.60
2022-08-05T20:15:51.687Z,38.00
2022-08-05T20:21:43.691Z,38.40
2022-08-05T20:27:58.525Z,37.70
2022-08-05T20:34:12.959Z,37.50
2022-08-05T20:40:27.193Z,38.00
2022-08-05T20:46:42.890Z,37.30
2022-08-05T20:52:55.649Z,38.00
2022-08-05T20:59:14.239Z,37.70
2022-08-05T21:05:38.073Z,37.80
2022-08-05T21:12:09.120Z,37.60
2022-08-05T21:17:58.974Z,37.70
2022-08-05T21:24:15.910Z,38.20
2022-08-05T21:30:31.137Z,37.50
2022-08-05T21:36:43.914Z,37.40
2022-08-05T21:42:59.867Z,37.20
2022-08-05T21:49:48.576Z,37.60
2022-08-05T21:56:01.562Z,37.40
2022-08-05T22:01:47.487Z,37.40
2022-08-05T22:08:02.976Z,37.40
2022-08-05T22:14:35.547Z,37.50
2022-08-05T22:20:35.018Z,37.50
2022-08-05T22:27:06.837Z,37.40
2022-08-05T22:33:20.242Z,37.30
2022-08-05T22:39:36.514Z,37.10
2022-08-05T22:45:49.499Z,36.90
2022-08-05T22:52:05.130Z,36.80
2022-08-05T22:58:16.168Z,37.30
2022-08-05T23:04:30.866Z,37.00
2022-08-05T23:10:45.856Z,36.90
2022-08-05T23:17:15.576Z,36.80
2022-08-05T23:23:29.930Z,37.10
2022-08-05T23:29:45.269Z,37.20
2022-08-05T23:35:59.756Z,37.10
2022-08-05T23:42:14.502Z,36.90
2022-08-05T23:48:27.497Z,37.20
2022-08-05T23:54:43.181Z,36.90
